createdAt,value
2018-09-28T00:02:18.906Z,22.80
2018-09-28T00:04:47.442Z,22.07
2018-09-28T00:07:16.026Z,23.77
2018-09-28T00:09:44.698Z,22.70
2018-09-28T00:12:13.520Z,23.23
2018-09-28T00:14:42.684Z,22.80
2018-09-28T00:17:14.269Z,21.63
2018-09-28T00:19:42.906Z,22.50
2018-09-28T00:22:11.486Z,22.53
2018-09-28T00:24:40.377Z,20.30
2018-09-28T00:27:08.881Z,23.00
2018-09-28T00:29:37.768Z,22.10
2018-09-28T00:32:06.639Z,23.70
2018-09-28T00:34:35.607Z,29.67
2018-09-28T00:37:04.298Z,33.47
2018-09-28T00:39:33.063Z,29.77
2018-09-28T00:42:01.811Z,29.63
2018-09-28T00:44:30.345Z,28.83
2018-09-28T00:46:59.048Z,27.83
2018-09-28T00:49:27.702Z,28.97
2018-09-28T00:51:56.375Z,24.43
2018-09-28T00:54:31.384Z,23.87
2018-09-28T00:56:59.985Z,16.70
2018-09-28T00:59:29.231Z,21.57
2018-09-28T01:01:57.802Z,19.67
2018-09-28T01:04:26.414Z,19.13
2018-09-28T01:06:55.015Z,21.60
2018-09-28T01:09:24.228Z,19.73
2018-09-28T01:11:52.839Z,24.93
2018-09-28T01:14:21.501Z,17.93
2018-09-28T01:16:50.084Z,17.17
2018-09-28T01:19:18.625Z,15.70
2018-09-28T01:21:47.228Z,21.83
2018-09-28T01:24:15.780Z,16.13
2018-09-28T01:26:44.427Z,13.77
2018-09-28T01:29:12.984Z,22.43
2018-09-28T01:31:41.652Z,14.83
2018-09-28T01:34:10.335Z,12.70
2018-09-28T01:36:38.986Z,18.67
2018-09-28T01:39:08.526Z,19.90
2018-09-28T01:41:37.131Z,18.83
2018-09-28T01:44:05.789Z,18.10
2018-09-28T01:46:34.355Z,21.70
2018-09-28T01:49:02.977Z,17.10
2018-09-28T01:51:31.626Z,14.73
2018-09-28T01:54:00.248Z,17.00
2018-09-28T01:56:30.525Z,14.47
2018-09-28T01:58:59.196Z,13.00
2018-09-28T02:01:27.882Z,13.77
2018-09-28T02:03:56.597Z,12.47
2018-09-28T02:06:25.470Z,16.80
2018-09-28T02:08:54.084Z,15.47
2018-09-28T02:11:22.657Z,10.30
2018-09-28T02:13:51.349Z,14.80
2018-09-28T02:16:20.935Z,12.47
2018-09-28T02:18:49.564Z,15.10
2018-09-28T02:21:18.112Z,9.90
2018-09-28T02:23:47.226Z,13.03
2018-09-28T02:26:16.285Z,15.03
2018-09-28T02:28:44.931Z,17.20
2018-09-28T02:31:13.609Z,10.93
2018-09-28T02:33:42.196Z,11.73
2018-09-28T02:36:10.780Z,14.73
2018-09-28T02:38:39.352Z,11.70
2018-09-28T02:41:08.048Z,10.27
2018-09-28T02:43:36.709Z,15.00
2018-09-28T02:46:05.891Z,16.50
2018-09-28T02:48:34.499Z,16.43
2018-09-28T02:51:03.141Z,12.43
2018-09-28T02:53:31.833Z,14.80
2018-09-28T02:56:00.498Z,13.67
2018-09-28T02:58:29.068Z,10.13
2018-09-28T03:00:57.673Z,12.47
2018-09-28T03:03:26.213Z,12.43
2018-09-28T03:05:54.750Z,14.03
2018-09-28T03:08:23.369Z,9.07
2018-09-28T03:10:51.942Z,10.43
2018-09-28T03:13:20.549Z,15.00
2018-09-28T03:15:49.108Z,13.77
2018-09-28T03:18:18.374Z,11.27
2018-09-28T03:20:46.962Z,16.13
2018-09-28T03:23:15.611Z,11.30
2018-09-28T03:25:44.213Z,15.20
2018-09-28T03:28:12.736Z,17.70
2018-09-28T03:30:41.340Z,13.17
2018-09-28T03:33:10.050Z,12.03
2018-09-28T03:35:38.837Z,9.87
2018-09-28T03:38:07.394Z,9.80
2018-09-28T03:40:36.018Z,13.03
2018-09-28T03:43:04.646Z,11.33
2018-09-28T03:45:33.165Z,13.43
2018-09-28T03:48:01.753Z,8.93
2018-09-28T03:50:30.396Z,6.70
2018-09-28T03:52:58.961Z,9.07
2018-09-28T03:55:27.505Z,8.50
2018-09-28T03:57:56.110Z,7.00
2018-09-28T04:00:25.274Z,9.57
2018-09-28T04:02:53.919Z,7.73
2018-09-28T04:05:23.256Z,6.20
2018-09-28T04:07:51.837Z,6.87
2018-09-28T04:10:20.532Z,7.83
2018-09-28T04:12:49.073Z,8.00
2018-09-28T04:15:17.660Z,6.87
2018-09-28T04:17:46.283Z,11.87
2018-09-28T04:20:15.652Z,8.73
2018-09-28T04:22:44.268Z,5.23
2018-09-28T04:25:12.953Z,6.40
2018-09-28T04:27:41.604Z,8.20
2018-09-28T04:30:10.264Z,6.80
2018-09-28T04:32:38.890Z,6.63
2018-09-28T04:35:07.550Z,7.73
2018-09-28T04:37:37.149Z,6.37
2018-09-28T04:40:05.777Z,6.43
2018-09-28T04:42:34.636Z,10.10
2018-09-28T04:45:03.320Z,7.83
2018-09-28T04:47:31.844Z,9.33
2018-09-28T04:50:00.466Z,6.23
2018-09-28T04:52:29.053Z,7.43
2018-09-28T04:54:57.624Z,8.43
2018-09-28T04:57:26.201Z,8.50
2018-09-28T04:59:54.810Z,17.37
2018-09-28T05:02:23.417Z,10.60
2018-09-28T05:04:52.012Z,11.00
2018-09-28T05:07:20.592Z,9.03
2018-09-28T05:09:49.161Z,12.77
2018-09-28T05:12:17.704Z,11.23
2018-09-28T05:14:46.299Z,14.13
2018-09-28T05:17:14.869Z,12.20
2018-09-28T05:19:43.522Z,10.27
2018-09-28T05:22:12.180Z,11.83
2018-09-28T05:24:40.831Z,13.37
2018-09-28T05:27:09.401Z,10.37
2018-09-28T05:29:37.956Z,14.63
2018-09-28T05:32:06.593Z,12.60
2018-09-28T05:34:35.190Z,16.60
2018-09-28T05:37:04.091Z,11.47
2018-09-28T05:39:32.717Z,12.77
2018-09-28T05:42:01.212Z,12.30
2018-09-28T05:44:29.735Z,12.70
2018-09-28T05:46:58.327Z,14.40
2018-09-28T05:49:27.454Z,18.83
2018-09-28T05:51:55.976Z,17.37
2018-09-28T05:54:24.574Z,11.93
2018-09-28T05:56:53.307Z,16.87
2018-09-28T05:59:27.030Z,14.40
2018-09-28T06:02:00.864Z,16.90
2018-09-28T06:04:34.723Z,18.03
2018-09-28T06:07:04.053Z,14.17
2018-09-28T06:09:32.582Z,12.37
2018-09-28T06:12:01.212Z,12.13
2018-09-28T06:14:29.838Z,14.50
2018-09-28T06:16:58.399Z,11.80
2018-09-28T06:19:27.010Z,13.80
2018-09-28T06:21:55.553Z,16.90
2018-09-28T06:24:24.317Z,11.97
2018-09-28T06:26:53.309Z,12.77
2018-09-28T06:29:21.902Z,11.03
2018-09-28T06:31:50.483Z,13.60
2018-09-28T06:34:20.874Z,14.73
2018-09-28T06:36:49.476Z,13.57
2018-09-28T06:39:18.078Z,14.13
2018-09-28T06:41:46.778Z,10.53
2018-09-28T06:44:15.399Z,12.33
2018-09-28T06:46:44.070Z,10.77
2018-09-28T06:49:12.681Z,10.00
2018-09-28T06:51:41.311Z,13.20
2018-09-28T06:54:09.949Z,15.77
2018-09-28T06:56:38.627Z,11.90
2018-09-28T06:59:07.281Z,15.33
2018-09-28T07:01:35.905Z,13.10
2018-09-28T07:04:04.644Z,13.40
2018-09-28T07:06:33.399Z,16.70
2018-09-28T07:09:02.018Z,13.03
2018-09-28T07:11:30.720Z,13.80
2018-09-28T07:13:59.357Z,14.77
2018-09-28T07:16:28.207Z,11.50
2018-09-28T07:18:56.702Z,12.33
2018-09-28T07:21:25.423Z,8.57
2018-09-28T07:23:54.044Z,11.77
2018-09-28T07:26:22.669Z,17.80
2018-09-28T07:28:51.224Z,10.57
2018-09-28T07:31:19.822Z,17.57
2018-09-28T07:33:48.527Z,13.37
2018-09-28T07:36:17.194Z,12.10
2018-09-28T07:38:45.799Z,17.37
2018-09-28T07:41:14.407Z,15.00
2018-09-28T07:43:43.109Z,12.10
2018-09-28T07:46:11.871Z,14.50
2018-09-28T07:48:41.554Z,12.87
2018-09-28T07:51:10.245Z,11.17
2018-09-28T07:53:38.828Z,14.10
2018-09-28T07:56:07.720Z,12.17
2018-09-28T07:58:36.292Z,12.50
2018-09-28T08:01:04.859Z,14.30
2018-09-28T08:03:33.494Z,7.40
2018-09-28T08:06:02.033Z,9.77
2018-09-28T08:08:30.638Z,12.50
2018-09-28T08:10:59.279Z,12.67
2018-09-28T08:13:27.875Z,9.97
2018-09-28T08:15:56.394Z,14.40
2018-09-28T08:18:25.049Z,12.57
2018-09-28T08:20:53.650Z,10.93
2018-09-28T08:23:22.369Z,12.87
2018-09-28T08:25:50.879Z,10.17
2018-09-28T08:28:19.433Z,10.77
2018-09-28T08:30:47.996Z,12.37
2018-09-28T08:33:16.582Z,15.50
2018-09-28T08:35:45.169Z,11.83
2018-09-28T08:38:13.769Z,7.63
2018-09-28T08:40:42.333Z,15.03
2018-09-28T08:43:10.877Z,10.10
2018-09-28T08:45:39.467Z,14.00
2018-09-28T08:48:08.142Z,9.97
2018-09-28T08:50:36.864Z,13.00
2018-09-28T08:53:05.463Z,7.50
2018-09-28T08:55:34.049Z,11.00
2018-09-28T08:58:02.580Z,9.83
2018-09-28T09:00:31.358Z,11.63
2018-09-28T09:02:59.919Z,11.80
2018-09-28T09:05:29.192Z,18.23
2018-09-28T09:07:57.824Z,11.40
2018-09-28T09:10:26.435Z,8.53
2018-09-28T09:12:55.000Z,12.53
2018-09-28T09:15:23.567Z,12.13
2018-09-28T09:17:52.198Z,9.60
2018-09-28T09:20:20.810Z,10.60
2018-09-28T09:22:49.362Z,10.87
2018-09-28T09:25:17.978Z,11.00
2018-09-28T09:27:46.557Z,8.37
2018-09-28T09:30:15.235Z,11.17
2018-09-28T09:32:43.898Z,13.17
2018-09-28T09:35:12.532Z,11.67
2018-09-28T09:37:41.091Z,9.57
2018-09-28T09:40:09.709Z,8.07
2018-09-28T09:42:38.393Z,11.50
2018-09-28T09:45:06.949Z,8.00
2018-09-28T09:47:35.590Z,8.20
2018-09-28T09:50:04.172Z,8.20
2018-09-28T09:52:32.748Z,14.17
2018-09-28T09:55:01.415Z,11.80
2018-09-28T09:57:30.030Z,9.20
2018-09-28T09:59:58.570Z,9.27
2018-09-28T10:02:33.663Z,7.03
2018-09-28T10:05:02.239Z,4.77
2018-09-28T10:07:31.520Z,6.40
2018-09-28T10:10:00.261Z,8.43
2018-09-28T10:12:28.896Z,7.67
2018-09-28T10:14:57.375Z,6.53
2018-09-28T10:17:25.954Z,9.03
2018-09-28T10:19:54.505Z,9.23
2018-09-28T10:22:23.200Z,10.13
2018-09-28T10:24:51.859Z,9.17
2018-09-28T10:27:20.553Z,7.37
2018-09-28T10:29:49.117Z,7.87
2018-09-28T10:32:17.678Z,8.37
2018-09-28T10:34:46.469Z,7.70
2018-09-28T10:37:15.089Z,7.73
2018-09-28T10:39:43.855Z,8.13
2018-09-28T10:42:12.382Z,5.80
2018-09-28T10:44:40.970Z,7.60
2018-09-28T10:47:09.584Z,7.83
2018-09-28T10:49:38.266Z,6.27
2018-09-28T10:52:07.739Z,8.23
2018-09-28T10:54:36.537Z,5.10
2018-09-28T10:57:05.114Z,6.13
2018-09-28T10:59:33.708Z,6.00
2018-09-28T11:02:02.280Z,10.00
2018-09-28T11:04:30.893Z,8.47
2018-09-28T11:06:59.744Z,5.60
2018-09-28T11:09:28.338Z,13.37
2018-09-28T11:11:56.973Z,5.27
2018-09-28T11:14:25.675Z,10.83
2018-09-28T11:16:54.385Z,8.13
2018-09-28T11:19:23.024Z,10.47
2018-09-28T11:21:51.671Z,8.57
2018-09-28T11:24:20.289Z,6.87
2018-09-28T11:26:48.856Z,10.07
2018-09-28T11:29:17.442Z,12.73
2018-09-28T11:31:46.073Z,13.43
2018-09-28T11:34:14.628Z,10.90
2018-09-28T11:36:43.228Z,8.77
2018-09-28T11:39:12.001Z,9.97
2018-09-28T11:41:40.675Z,9.33
2018-09-28T11:44:09.461Z,12.00
2018-09-28T11:46:38.032Z,10.37
2018-09-28T11:49:06.907Z,7.87
2018-09-28T11:51:35.526Z,7.90
2018-09-28T11:54:04.230Z,7.83
2018-09-28T11:56:32.772Z,5.00
2018-09-28T11:59:01.307Z,4.20
2018-09-28T12:01:29.937Z,5.03
2018-09-28T12:03:58.568Z,4.43
2018-09-28T12:06:27.188Z,5.27
2018-09-28T12:08:55.783Z,8.87
2018-09-28T12:11:24.490Z,5.60
2018-09-28T12:13:53.184Z,6.27
2018-09-28T12:16:21.840Z,8.23
2018-09-28T12:18:50.545Z,8.70
2018-09-28T12:21:19.068Z,8.20
2018-09-28T12:23:47.617Z,6.37
2018-09-28T12:26:16.159Z,7.07
2018-09-28T12:28:44.793Z,3.80
2018-09-28T12:31:13.416Z,15.67
2018-09-28T12:33:42.028Z,12.00
2018-09-28T12:36:10.637Z,9.83
2018-09-28T12:38:39.747Z,10.20
2018-09-28T12:41:08.392Z,13.47
2018-09-28T12:43:37.070Z,9.37
2018-09-28T12:46:05.630Z,10.13
2018-09-28T12:48:34.333Z,11.03
2018-09-28T12:51:03.007Z,5.53
2018-09-28T12:53:31.578Z,6.57
2018-09-28T12:56:00.211Z,4.27
2018-09-28T12:58:28.902Z,4.07
2018-09-28T13:00:57.575Z,5.40
2018-09-28T13:03:26.087Z,5.37
2018-09-28T13:05:54.659Z,6.97
2018-09-28T13:08:23.339Z,6.13
2018-09-28T13:10:52.467Z,7.93
2018-09-28T13:13:21.031Z,7.13
2018-09-28T13:15:49.663Z,8.33
2018-09-28T13:18:18.249Z,4.87
2018-09-28T13:20:46.857Z,8.00
2018-09-28T13:23:15.409Z,18.80
2018-09-28T13:25:45.429Z,28.43
2018-09-28T13:28:14.080Z,17.33
2018-09-28T13:30:42.826Z,5.33
2018-09-28T13:33:11.369Z,9.50
2018-09-28T13:35:40.015Z,8.13
2018-09-28T13:38:08.761Z,11.33
2018-09-28T13:40:37.433Z,10.20
2018-09-28T13:43:06.238Z,9.90
2018-09-28T13:45:35.053Z,10.57
2018-09-28T13:48:03.666Z,11.77
2018-09-28T13:50:32.263Z,13.23
2018-09-28T13:53:01.167Z,13.73
2018-09-28T13:55:29.876Z,11.73
2018-09-28T13:57:58.554Z,12.77
2018-09-28T14:00:27.360Z,11.20
2018-09-28T14:02:55.930Z,10.67
2018-09-28T14:05:24.562Z,8.57
2018-09-28T14:07:53.256Z,6.70
2018-09-28T14:10:22.000Z,8.77
2018-09-28T14:12:50.609Z,5.33
2018-09-28T14:15:19.207Z,6.53
2018-09-28T14:17:47.829Z,4.27
2018-09-28T14:20:16.506Z,6.23
2018-09-28T14:22:45.166Z,5.83
2018-09-28T14:25:13.685Z,7.60
2018-09-28T14:27:42.508Z,4.97
2018-09-28T14:30:11.114Z,5.37
2018-09-28T14:32:39.774Z,7.20
2018-09-28T14:35:08.462Z,5.27
2018-09-28T14:37:37.174Z,5.17
2018-09-28T14:40:05.960Z,5.60
2018-09-28T14:42:34.615Z,4.93
2018-09-28T14:45:03.243Z,4.97
2018-09-28T14:47:31.919Z,4.53
2018-09-28T14:50:00.446Z,6.83
2018-09-28T14:52:28.985Z,7.63
2018-09-28T14:54:57.565Z,7.27
2018-09-28T14:57:26.230Z,10.17
2018-09-28T14:59:54.759Z,11.37
2018-09-28T15:02:23.334Z,6.87
2018-09-28T15:04:51.928Z,6.60
2018-09-28T15:07:20.654Z,7.07
2018-09-28T15:09:49.687Z,5.97
2018-09-28T15:12:18.276Z,5.30
2018-09-28T15:14:46.834Z,5.30
2018-09-28T15:17:15.414Z,5.07
2018-09-28T15:19:44.016Z,5.90
2018-09-28T15:22:12.563Z,7.57
2018-09-28T15:24:41.140Z,5.77
2018-09-28T15:27:09.728Z,5.07
2018-09-28T15:29:38.291Z,6.03
2018-09-28T15:32:07.095Z,7.07
2018-09-28T15:34:35.860Z,6.20
2018-09-28T15:37:04.629Z,7.33
2018-09-28T15:39:33.229Z,5.23
2018-09-28T15:42:01.743Z,5.87
2018-09-28T15:44:30.314Z,4.13
2018-09-28T15:46:58.871Z,6.00
2018-09-28T15:49:27.560Z,6.97
2018-09-28T15:51:56.173Z,7.23
2018-09-28T15:54:24.784Z,6.13
2018-09-28T15:56:53.412Z,4.97
2018-09-28T15:59:21.997Z,11.80
2018-09-28T16:01:50.569Z,8.50
2018-09-28T16:04:19.142Z,6.57
2018-09-28T16:06:47.777Z,8.57
2018-09-28T16:09:16.614Z,4.53
2018-09-28T16:11:45.167Z,4.43
2018-09-28T16:14:13.765Z,4.13
2018-09-28T16:16:42.371Z,7.33
2018-09-28T16:19:10.953Z,6.07
2018-09-28T16:21:39.468Z,4.87
2018-09-28T16:24:08.038Z,5.23
2018-09-28T16:26:36.735Z,7.23
2018-09-28T16:29:05.434Z,6.83
2018-09-28T16:31:34.002Z,5.77
2018-09-28T16:34:02.619Z,7.63
2018-09-28T16:36:31.177Z,7.80
2018-09-28T16:38:59.754Z,10.20
2018-09-28T16:41:28.345Z,10.03
2018-09-28T16:43:56.907Z,9.47
2018-09-28T16:46:25.561Z,11.03
2018-09-28T16:48:54.164Z,9.77
2018-09-28T16:51:22.680Z,6.77
2018-09-28T16:53:51.227Z,5.03
2018-09-28T16:56:19.757Z,8.10
2018-09-28T16:58:48.373Z,7.27
2018-09-28T17:01:16.946Z,8.73
2018-09-28T17:03:45.485Z,5.53
2018-09-28T17:06:14.077Z,6.40
2018-09-28T17:08:42.611Z,8.93
2018-09-28T17:11:11.140Z,7.77
2018-09-28T17:13:39.822Z,6.93
2018-09-28T17:16:08.576Z,5.93
2018-09-28T17:18:37.169Z,6.37
2018-09-28T17:21:05.939Z,8.83
2018-09-28T17:23:34.484Z,6.03
2018-09-28T17:26:03.008Z,6.43
2018-09-28T17:28:31.702Z,5.37
2018-09-28T17:31:00.290Z,8.80
2018-09-28T17:33:28.917Z,6.33
2018-09-28T17:35:58.042Z,4.83
2018-09-28T17:38:26.676Z,6.23
2018-09-28T17:40:55.297Z,4.80
2018-09-28T17:43:23.904Z,6.27
2018-09-28T17:45:52.514Z,11.23
2018-09-28T17:48:21.036Z,6.87
2018-09-28T17:50:49.645Z,9.43
2018-09-28T17:53:18.247Z,13.53
2018-09-28T17:55:46.789Z,8.77
2018-09-28T17:58:15.359Z,5.80
2018-09-28T18:00:43.939Z,7.10
2018-09-28T18:03:12.571Z,10.93
2018-09-28T18:05:41.446Z,9.23
2018-09-28T18:08:09.996Z,11.90
2018-09-28T18:10:38.600Z,10.87
2018-09-28T18:13:08.021Z,8.87
2018-09-28T18:15:36.709Z,7.53
2018-09-28T18:18:05.339Z,10.37
2018-09-28T18:20:34.078Z,15.97
2018-09-28T18:23:03.357Z,14.87
2018-09-28T18:25:32.224Z,13.73
2018-09-28T18:28:00.815Z,15.27
2018-09-28T18:30:29.472Z,34.07
2018-09-28T18:32:58.053Z,7.30
2018-09-28T18:35:26.759Z,11.43
2018-09-28T18:37:55.361Z,8.57
2018-09-28T18:40:24.032Z,10.77
2018-09-28T18:42:52.735Z,7.40
2018-09-28T18:45:21.415Z,15.27
2018-09-28T18:47:50.529Z,12.33
2018-09-28T18:50:19.158Z,14.63
2018-09-28T18:52:47.904Z,15.30
2018-09-28T18:55:16.858Z,9.13
2018-09-28T18:57:45.584Z,6.40
2018-09-28T19:00:14.582Z,7.77
2018-09-28T19:02:50.330Z,12.17
2018-09-28T19:05:22.799Z,8.27
2018-09-28T19:07:51.680Z,8.90
2018-09-28T19:10:20.380Z,4.43
2018-09-28T19:12:49.195Z,9.17
2018-09-28T19:15:17.813Z,7.50
2018-09-28T19:17:46.539Z,6.90
2018-09-28T19:20:15.158Z,7.73
2018-09-28T19:22:43.817Z,10.80
2018-09-28T19:25:12.524Z,9.67
2018-09-28T19:27:41.174Z,8.07
2018-09-28T19:30:09.899Z,9.23
2018-09-28T19:32:38.675Z,6.50
2018-09-28T19:35:07.357Z,8.53
2018-09-28T19:37:36.092Z,8.90
2018-09-28T19:41:02.474Z,6.67
2018-09-28T19:43:31.193Z,7.63
2018-09-28T19:46:01.004Z,7.67
2018-09-28T19:48:29.793Z,8.40
2018-09-28T19:50:58.492Z,11.30
2018-09-28T19:53:27.160Z,8.57
2018-09-28T19:55:55.889Z,7.00
2018-09-28T19:58:24.602Z,8.87
2018-09-28T20:00:59.102Z,7.77
2018-09-28T20:03:28.625Z,10.57
2018-09-28T20:05:57.291Z,11.10
2018-09-28T20:08:26.989Z,9.60
2018-09-28T20:10:55.708Z,12.57
2018-09-28T20:13:24.474Z,17.43
2018-09-28T20:15:53.273Z,9.87
2018-09-28T20:18:22.017Z,15.97
2018-09-28T20:20:50.803Z,19.73
2018-09-28T20:23:19.516Z,14.90
2018-09-28T20:25:49.033Z,16.77
2018-09-28T20:28:21.400Z,21.03
2018-09-28T20:30:50.694Z,9.23
2018-09-28T20:33:19.439Z,8.73
2018-09-28T20:35:48.171Z,10.83
2018-09-28T20:38:16.968Z,9.40
2018-09-28T20:40:45.739Z,8.30
2018-09-28T20:43:14.480Z,7.43
2018-09-28T20:45:43.181Z,8.63
2018-09-28T20:48:11.969Z,11.70
2018-09-28T20:50:40.711Z,14.93
2018-09-28T20:53:09.456Z,8.37
2018-09-28T20:55:38.241Z,8.27
2018-09-28T20:58:06.958Z,10.53
2018-09-28T21:00:35.719Z,9.33
2018-09-28T21:03:04.463Z,7.87
2018-09-28T21:05:33.246Z,8.23
2018-09-28T21:08:02.006Z,7.53
2018-09-28T21:10:30.874Z,7.67
2018-09-28T21:13:00.318Z,5.80
2018-09-28T21:15:29.177Z,10.27
2018-09-28T21:17:58.611Z,8.27
2018-09-28T21:20:27.349Z,6.70
2018-09-28T21:22:56.133Z,9.47
2018-09-28T21:25:24.841Z,9.57
2018-09-28T21:27:53.524Z,11.10
2018-09-28T21:30:22.195Z,8.53
2018-09-28T21:32:50.925Z,8.20
2018-09-28T21:35:19.573Z,12.73
2018-09-28T21:37:48.254Z,8.40
2018-09-28T21:40:17.239Z,9.43
2018-09-28T21:42:46.102Z,7.17
2018-09-28T21:45:14.723Z,6.73
2018-09-28T21:47:44.323Z,10.60
2018-09-28T21:50:13.010Z,8.97
2018-09-28T21:52:41.735Z,6.30
2018-09-28T21:55:10.543Z,6.10
2018-09-28T21:57:39.338Z,6.77
2018-09-28T22:00:08.158Z,10.03
2018-09-28T22:02:36.779Z,10.10
2018-09-28T22:05:05.530Z,6.27
2018-09-28T22:07:34.169Z,6.27
2018-09-28T22:10:02.803Z,10.37
2018-09-28T22:12:32.011Z,7.93
2018-09-28T22:15:00.655Z,28.40
2018-09-28T22:17:30.250Z,17.33
2018-09-28T22:19:58.887Z,17.73
2018-09-28T22:22:27.609Z,18.10
2018-09-28T22:24:56.432Z,16.87
2018-09-28T22:27:25.321Z,18.10
2018-09-28T22:29:54.045Z,17.70
2018-09-28T22:32:22.857Z,17.83
2018-09-28T22:34:51.615Z,17.00
2018-09-28T22:37:20.296Z,17.63
2018-09-28T22:39:49.036Z,20.30
2018-09-28T22:42:17.702Z,18.30
2018-09-28T22:44:46.451Z,18.13
2018-09-28T22:47:15.202Z,18.27
2018-09-28T22:49:43.812Z,17.77
2018-09-28T22:52:12.357Z,17.87
2018-09-28T22:54:40.892Z,5.53
2018-09-28T22:57:09.465Z,6.80
2018-09-28T22:59:38.102Z,7.80
2018-09-28T23:02:06.786Z,10.20
2018-09-28T23:04:35.572Z,6.97
2018-09-28T23:07:04.401Z,6.30
2018-09-28T23:09:33.057Z,8.90
2018-09-28T23:12:01.813Z,24.03
2018-09-28T23:14:30.430Z,22.00
2018-09-28T23:16:59.061Z,25.47
2018-09-28T23:19:27.606Z,22.40
2018-09-28T23:21:56.170Z,10.97
2018-09-28T23:24:24.793Z,9.87
2018-09-28T23:26:53.519Z,10.97
2018-09-28T23:29:22.108Z,10.87
2018-09-28T23:31:50.705Z,9.50
2018-09-28T23:34:19.341Z,6.57
2018-09-28T23:36:47.908Z,8.77
2018-09-28T23:39:16.467Z,8.77
2018-09-28T23:41:45.057Z,8.93
2018-09-28T23:44:13.751Z,15.27
2018-09-28T23:46:42.464Z,12.00
2018-09-28T23:49:11.193Z,10.93
2018-09-28T23:51:39.828Z,11.73
2018-09-28T23:54:08.565Z,7.37
2018-09-28T23:56:37.147Z,6.67
2018-09-28T23:59:05.768Z,9.47
